Time;durP1;ratioP1;P1;durP2;ratioP2;P2;SDS_P1;SDS_P2;PMS_P1;PMS_P2;Temp;Humidity;BMP_temperature;BMP_pressure;BME280_temperature;BME280_humidity;BME280_pressure;Samples;Min_cycle;Max_cycle;Signal;HPM_P1;HPM_P2
2023/10/28 00:00:59;;;;;;;1.93;0.80;;;13.80;99.90;;;;;;4984739;28;20030;-22
2023/10/28 00:03:26;;;;;;;3.42;1.58;;;13.80;99.90;;;;;;4966320;28;20030;-22
2023/10/28 00:05:51;;;;;;;1.45;0.80;;;13.70;99.90;;;;;;4939241;28;20588;-22
2023/10/28 00:08:17;;;;;;;2.17;0.80;;;13.70;99.90;;;;;;4963145;28;20026;-22
2023/10/28 00:10:44;;;;;;;1.00;0.70;;;13.70;99.90;;;;;;4965208;28;20235;-22
2023/10/28 00:13:12;;;;;;;1.73;0.85;;;13.70;99.90;;;;;;4974481;28;20308;-22
2023/10/28 00:15:39;;;;;;;1.98;0.95;;;13.70;99.90;;;;;;4964095;28;20854;-23
2023/10/28 00:18:05;;;;;;;2.57;0.80;;;13.70;99.90;;;;;;4960441;28;20047;-22
2023/10/28 00:20:32;;;;;;;2.10;0.80;;;13.70;99.90;;;;;;4964082;28;20030;-23
2023/10/28 00:22:58;;;;;;;2.53;0.85;;;13.70;99.90;;;;;;4955247;28;20711;-22
2023/10/28 00:25:29;;;;;;;1.35;0.52;;;13.70;99.90;;;;;;4969534;28;20030;-23
2023/10/28 00:27:55;;;;;;;1.27;0.80;;;13.70;99.90;;;;;;4965296;28;20031;-22
2023/10/28 00:30:24;;;;;;;1.30;0.70;;;13.70;99.90;;;;;;4963309;28;20115;-22
2023/10/28 00:32:58;;;;;;;2.25;0.93;;;13.70;99.90;;;;;;4956685;28;20221;-22
2023/10/28 00:35:25;;;;;;;1.55;0.60;;;13.70;99.90;;;;;;4968329;28;20066;-23
2023/10/28 00:37:51;;;;;;;0.80;0.60;;;13.70;99.90;;;;;;4943758;28;20392;-22
2023/10/28 00:40:17;;;;;;;1.60;0.68;;;13.70;99.90;;;;;;4967628;28;20080;-22
2023/10/28 00:42:45;;;;;;;2.17;0.87;;;13.60;99.90;;;;;;4970520;28;20322;-22
2023/10/28 00:45:13;;;;;;;1.10;0.70;;;13.70;99.90;;;;;;4964286;28;20197;-22
2023/10/28 00:47:41;;;;;;;1.52;0.60;;;13.70;99.90;;;;;;4953897;28;20037;-23
2023/10/28 00:50:14;;;;;;;1.75;0.70;;;13.70;99.90;;;;;;4960875;28;20104;-22
2023/10/28 00:52:48;;;;;;;4.43;1.08;;;13.60;99.90;;;;;;4947169;28;20041;-23
2023/10/28 00:55:16;;;;;;;1.20;0.80;;;13.70;99.90;;;;;;4966953;28;20034;-22
2023/10/28 00:57:43;;;;;;;1.58;0.77;;;13.60;99.90;;;;;;4967229;28;20039;-23
2023/10/28 01:00:10;;;;;;;1.92;0.98;;;13.60;99.90;;;;;;4968650;28;20030;-22
2023/10/28 01:02:38;;;;;;;1.75;0.90;;;13.70;99.90;;;;;;4964226;28;20184;-22
2023/10/28 01:05:06;;;;;;;2.47;1.00;;;13.60;99.90;;;;;;4962013;28;20018;-22
2023/10/28 01:07:32;;;;;;;2.33;0.80;;;13.70;99.90;;;;;;4945867;28;20133;-23
2023/10/28 01:09:59;;;;;;;1.95;1.00;;;13.60;99.90;;;;;;4973192;28;20721;-22
2023/10/28 01:12:26;;;;;;;1.20;0.80;;;13.70;99.90;;;;;;4945419;28;20033;-22
2023/10/28 01:14:52;;;;;;;1.40;0.80;;;13.60;99.90;;;;;;4981275;28;20034;-22
2023/10/28 01:17:21;;;;;;;1.80;0.80;;;13.70;99.90;;;;;;4967350;28;20027;-22
2023/10/28 01:19:47;;;;;;;1.60;0.70;;;13.60;99.90;;;;;;4954763;28;20358;-23
2023/10/28 01:22:13;;;;;;;1.48;0.70;;;13.10;99.90;;;;;;4970419;28;20053;-23
2023/10/28 01:24:39;;;;;;;1.25;0.90;;;13.60;99.90;;;;;;4948930;28;20030;-22
2023/10/28 01:27:04;;;;;;;1.77;0.80;;;13.50;99.90;;;;;;4963306;28;20042;-22
2023/10/28 01:29:32;;;;;;;1.77;0.80;;;13.50;99.90;;;;;;4965955;28;20037;-23
2023/10/28 01:31:58;;;;;;;1.08;0.80;;;13.50;99.90;;;;;;4971924;28;20030;-22
2023/10/28 01:34:24;;;;;;;1.10;0.60;;;13.40;99.90;;;;;;4959731;28;20065;-23
2023/10/28 01:36:49;;;;;;;1.63;0.90;;;13.40;99.90;;;;;;4954765;28;20241;-22
2023/10/28 01:39:15;;;;;;;1.70;0.80;;;13.40;99.90;;;;;;4947452;28;20092;-23
2023/10/28 01:41:42;;;;;;;2.20;1.00;;;13.30;99.90;;;;;;4957423;28;20236;-22
2023/10/28 01:44:08;;;;;;;1.52;0.80;;;13.30;99.90;;;;;;4968356;28;20081;-22
2023/10/28 01:46:34;;;;;;;1.27;0.80;;;13.30;99.90;;;;;;4943263;28;20038;-22
2023/10/28 01:49:00;;;;;;;2.70;0.90;;;13.30;99.90;;;;;;4957560;28;20035;-22
2023/10/28 01:51:26;;;;;;;0.82;0.70;;;13.20;99.90;;;;;;4961290;28;20357;-22
2023/10/28 01:53:52;;;;;;;2.10;0.80;;;13.20;99.90;;;;;;4943732;28;20026;-23
2023/10/28 01:56:18;;;;;;;1.57;0.83;;;12.70;99.90;;;;;;4967643;28;20037;-22
2023/10/28 01:58:44;;;;;;;2.13;0.90;;;13.20;99.90;;;;;;4978946;28;20523;-23
2023/10/28 02:01:09;;;;;;;2.03;0.90;;;13.20;99.90;;;;;;4961404;28;20093;-22
2023/10/28 02:03:35;;;;;;;1.73;1.00;;;13.20;99.90;;;;;;4960526;28;20042;-23
2023/10/28 02:06:01;;;;;;;2.10;0.70;;;13.20;99.90;;;;;;4954056;28;20277;-23
2023/10/28 02:08:27;;;;;;;1.23;0.80;;;13.20;99.90;;;;;;4966898;28;20022;-23
2023/10/28 02:10:52;;;;;;;0.70;0.70;;;13.20;99.90;;;;;;4945434;28;20058;-23
2023/10/28 02:13:18;;;;;;;2.42;0.80;;;13.20;99.90;;;;;;4965772;28;20075;-22
2023/10/28 02:15:51;;;;;;;1.23;0.80;;;13.30;99.90;;;;;;4966156;28;20026;-23
2023/10/28 02:18:18;;;;;;;1.63;0.70;;;13.30;99.90;;;;;;4947778;28;20023;-23
2023/10/28 02:20:45;;;;;;;2.53;0.82;;;13.30;99.90;;;;;;4945791;28;20037;-23
2023/10/28 02:23:13;;;;;;;1.10;0.70;;;13.30;99.90;;;;;;4956267;28;20176;-22
2023/10/28 02:25:41;;;;;;;1.77;1.00;;;13.30;99.90;;;;;;4932900;28;20030;-23
2023/10/28 02:28:08;;;;;;;1.73;0.90;;;13.30;99.90;;;;;;4961670;28;20412;-23
2023/10/28 02:30:40;;;;;;;1.00;0.70;;;13.30;99.90;;;;;;4971293;28;20097;-23
2023/10/28 02:33:06;;;;;;;1.42;0.80;;;13.40;99.90;;;;;;4960014;28;20141;-22
2023/10/28 02:35:33;;;;;;;1.10;0.70;;;13.40;99.90;;;;;;4978323;28;20027;-23
2023/10/28 02:37:59;;;;;;;1.17;0.80;;;13.40;99.90;;;;;;4971556;28;20702;-23
2023/10/28 02:40:25;;;;;;;1.30;0.90;;;13.40;99.90;;;;;;4941989;28;20062;-23
2023/10/28 02:42:51;;;;;;;1.85;0.90;;;13.40;99.90;;;;;;4957176;28;20030;-23
2023/10/28 02:45:16;;;;;;;0.97;0.77;;;13.40;99.90;;;;;;4963965;28;20130;-23
2023/10/28 02:47:42;;;;;;;1.00;0.80;;;13.40;99.90;;;;;;4938260;28;20106;-23
2023/10/28 02:50:09;;;;;;;1.67;0.90;;;13.40;99.90;;;;;;4977964;28;20101;-23
2023/10/28 02:52:38;;;;;;;2.50;0.85;;;13.40;99.90;;;;;;4969414;28;20026;-23
2023/10/28 02:55:05;;;;;;;2.30;0.75;;;13.40;99.90;;;;;;4942049;28;20548;-23
2023/10/28 02:57:32;;;;;;;1.33;0.73;;;13.50;99.90;;;;;;4971113;28;20802;-23
2023/10/28 02:59:58;;;;;;;1.77;0.80;;;13.50;99.90;;;;;;4981561;28;20030;-23
2023/10/28 03:02:23;;;;;;;1.90;0.80;;;13.50;99.90;;;;;;4966153;28;20064;-23
2023/10/28 03:04:49;;;;;;;2.15;0.70;;;13.50;99.90;;;;;;4964648;28;20026;-23
2023/10/28 03:07:15;;;;;;;1.20;0.70;;;13.50;99.90;;;;;;4976132;28;20437;-23
2023/10/28 03:09:40;;;;;;;1.85;0.80;;;13.60;99.90;;;;;;4965491;28;20043;-23
2023/10/28 03:12:06;;;;;;;1.63;0.90;;;13.60;99.90;;;;;;4951407;28;20735;-23
2023/10/28 03:14:32;;;;;;;1.23;0.70;;;13.60;99.90;;;;;;4974568;28;20023;-23
2023/10/28 03:16:59;;;;;;;1.30;0.70;;;13.60;99.90;;;;;;4966018;28;20818;-23
2023/10/28 03:19:24;;;;;;;2.53;1.00;;;13.60;99.90;;;;;;4960374;28;20063;-23
2023/10/28 03:21:50;;;;;;;2.70;0.90;;;13.60;99.90;;;;;;4967216;28;20115;-23
2023/10/28 03:24:16;;;;;;;0.70;0.67;;;13.60;99.90;;;;;;4964237;28;20034;-23
2023/10/28 03:26:42;;;;;;;2.17;0.83;;;13.60;99.90;;;;;;4932387;28;21037;-23
2023/10/28 03:29:08;;;;;;;2.08;0.90;;;13.60;99.90;;;;;;4968426;28;20038;-23
2023/10/28 03:31:33;;;;;;;1.30;0.65;;;13.60;99.90;;;;;;4953822;28;20041;-23
2023/10/28 03:33:59;;;;;;;2.40;1.47;;;12.70;99.90;;;;;;4963001;28;20765;-23
2023/10/28 03:36:25;;;;;;;1.90;0.90;;;13.70;99.90;;;;;;4963485;28;20045;-23
2023/10/28 03:38:51;;;;;;;1.93;0.87;;;13.70;99.90;;;;;;4969851;28;20023;-23
2023/10/28 03:41:16;;;;;;;0.90;0.70;;;13.70;99.90;;;;;;4964405;28;20026;-22
2023/10/28 03:43:42;;;;;;;1.50;0.80;;;13.70;99.90;;;;;;4947543;28;20019;-23
2023/10/28 03:46:14;;;;;;;0.90;0.70;;;13.70;99.90;;;;;;4964867;28;20031;-23
2023/10/28 03:48:40;;;;;;;2.05;0.90;;;13.70;99.90;;;;;;4951715;28;20038;-23
2023/10/28 03:51:05;;;;;;;1.00;0.80;;;13.70;99.90;;;;;;4970708;28;20042;-23
2023/10/28 03:53:31;;;;;;;0.90;0.60;;;13.70;99.90;;;;;;4974201;28;20098;-23
2023/10/28 03:55:57;;;;;;;3.22;1.33;;;13.70;99.90;;;;;;4964554;28;20015;-23
2023/10/28 03:58:23;;;;;;;2.90;0.90;;;13.70;99.90;;;;;;4949800;28;20125;-23
2023/10/28 04:00:53;;;;;;;4.13;1.10;;;13.70;99.90;;;;;;4970387;28;20134;-23
2023/10/28 04:03:23;;;;;;;1.60;1.02;;;13.70;99.90;;;;;;4957521;28;20037;-23
2023/10/28 04:05:49;;;;;;;1.40;0.80;;;13.70;99.90;;;;;;4965508;28;20030;-23
2023/10/28 04:08:15;;;;;;;1.83;0.90;;;13.70;99.90;;;;;;4980113;28;20508;-23
2023/10/28 04:10:41;;;;;;;1.57;0.80;;;13.70;99.90;;;;;;4954463;28;20042;-22
2023/10/28 04:13:07;;;;;;;2.28;1.08;;;13.70;99.90;;;;;;4987575;28;20559;-23
2023/10/28 04:15:33;;;;;;;1.90;0.90;;;13.70;99.90;;;;;;4922145;28;20054;-23
2023/10/28 04:17:58;;;;;;;4.13;0.80;;;13.70;99.90;;;;;;4944108;28;20038;-23
2023/10/28 04:20:24;;;;;;;1.85;1.00;;;13.70;99.90;;;;;;4970700;28;20039;-23
2023/10/28 04:22:50;;;;;;;1.47;0.80;;;13.70;99.90;;;;;;4957052;28;20352;-23
2023/10/28 04:25:16;;;;;;;2.53;0.90;;;13.70;99.90;;;;;;4973597;28;20567;-23
2023/10/28 04:27:42;;;;;;;2.55;1.27;;;13.70;99.90;;;;;;4945560;28;20220;-23
2023/10/28 04:30:10;;;;;;;1.43;0.80;;;13.70;99.90;;;;;;4965042;28;20400;-23
2023/10/28 04:32:40;;;;;;;2.75;0.85;;;13.80;99.90;;;;;;4975587;28;20038;-25
2023/10/28 04:35:06;;;;;;;1.73;0.70;;;13.70;99.90;;;;;;4970187;28;20030;-25
2023/10/28 04:37:32;;;;;;;2.95;0.98;;;13.80;99.90;;;;;;4957300;28;20038;-25
2023/10/28 04:39:58;;;;;;;1.40;0.70;;;13.80;99.90;;;;;;4967834;28;20018;-25
2023/10/28 04:42:24;;;;;;;1.43;0.87;;;13.80;99.90;;;;;;4983681;28;20030;-25
2023/10/28 04:44:50;;;;;;;0.90;0.70;;;13.80;99.90;;;;;;4941453;28;21015;-23
2023/10/28 04:47:16;;;;;;;2.27;1.00;;;13.80;99.90;;;;;;4955800;28;20547;-23
2023/10/28 04:49:42;;;;;;;2.85;1.00;;;13.80;99.90;;;;;;4959788;28;20244;-23
2023/10/28 04:52:11;;;;;;;1.77;0.90;;;13.80;99.90;;;;;;4963791;28;20062;-23
2023/10/28 04:54:39;;;;;;;1.50;0.90;;;13.80;99.90;;;;;;4952386;28;20027;-23
2023/10/28 04:57:05;;;;;;;2.25;0.80;;;13.80;99.90;;;;;;4968618;28;20034;-23
2023/10/28 04:59:31;;;;;;;2.37;0.80;;;13.90;99.90;;;;;;4962090;28;20053;-23
2023/10/28 05:01:57;;;;;;;2.25;1.00;;;13.80;99.90;;;;;;4933676;28;20055;-23
2023/10/28 05:04:24;;;;;;;4.38;0.80;;;13.80;99.90;;;;;;4960561;28;20053;-23
2023/10/28 05:06:51;;;;;;;1.80;0.80;;;13.80;99.90;;;;;;4964369;28;20074;-23
2023/10/28 05:09:20;;;;;;;1.80;0.75;;;13.90;99.90;;;;;;4957855;28;20145;-23
2023/10/28 05:11:46;;;;;;;1.73;0.90;;;13.90;99.90;;;;;;4970925;28;20065;-23
2023/10/28 05:14:14;;;;;;;2.20;0.90;;;13.90;99.90;;;;;;4944399;28;20166;-23
2023/10/28 05:16:40;;;;;;;2.38;0.80;;;13.90;99.90;;;;;;4950033;28;20023;-23
2023/10/28 05:19:06;;;;;;;3.03;1.00;;;13.90;99.90;;;;;;4981961;28;20490;-23
2023/10/28 05:21:31;;;;;;;1.77;0.93;;;13.90;99.90;;;;;;4961000;28;20034;-23
2023/10/28 05:23:57;;;;;;;1.73;0.93;;;13.90;99.90;;;;;;4955597;28;20033;-23
2023/10/28 05:26:23;;;;;;;2.90;0.80;;;13.90;99.90;;;;;;4949427;28;20022;-23
2023/10/28 05:28:51;;;;;;;2.53;0.90;;;13.90;99.90;;;;;;4965269;28;20389;-23
2023/10/28 05:31:17;;;;;;;2.47;0.80;;;13.90;99.90;;;;;;4944217;28;20989;-23
2023/10/28 05:33:43;;;;;;;1.93;0.73;;;15.70;99.90;;;;;;4967838;28;20029;-23
2023/10/28 05:36:08;;;;;;;2.28;0.75;;;13.90;99.90;;;;;;4942178;28;20089;-23
2023/10/28 05:38:34;;;;;;;2.40;0.80;;;13.90;99.90;;;;;;4970519;28;20034;-23
2023/10/28 05:41:00;;;;;;;2.97;0.90;;;13.90;99.90;;;;;;4961534;28;20027;-23
2023/10/28 05:43:25;;;;;;;2.95;0.80;;;13.90;99.90;;;;;;4949934;28;20057;-25
2023/10/28 05:45:51;;;;;;;2.87;0.87;;;13.90;99.90;;;;;;4962338;28;20122;-25
2023/10/28 05:48:17;;;;;;;1.47;0.87;;;13.90;99.90;;;;;;4952292;28;20037;-25
2023/10/28 05:50:42;;;;;;;2.75;0.90;;;13.90;99.90;;;;;;4962500;28;20084;-25
2023/10/28 05:53:08;;;;;;;1.67;0.80;;;14.00;99.90;;;;;;4958543;28;20070;-24
2023/10/28 05:55:34;;;;;;;4.43;1.00;;;13.90;99.90;;;;;;4986733;28;20727;-25
2023/10/28 05:57:59;;;;;;;2.27;0.90;;;14.00;99.90;;;;;;4964340;28;20562;-24
2023/10/28 06:00:25;;;;;;;1.73;0.73;;;14.00;99.90;;;;;;4958417;28;20121;-25
2023/10/28 06:02:51;;;;;;;3.90;1.00;;;13.90;99.90;;;;;;4951390;28;20038;-24
2023/10/28 06:05:17;;;;;;;2.28;0.80;;;13.40;99.90;;;;;;4976490;28;20034;-24
2023/10/28 06:07:47;;;;;;;0.97;0.73;;;13.80;99.90;;;;;;4958504;28;20302;-25
2023/10/28 06:10:13;;;;;;;1.90;0.80;;;13.80;99.90;;;;;;4940040;28;20439;-24
2023/10/28 06:12:39;;;;;;;2.20;0.68;;;13.80;99.90;;;;;;4965873;28;20719;-25
2023/10/28 06:15:06;;;;;;;2.17;0.95;;;13.80;99.90;;;;;;4966037;28;20113;-25
2023/10/28 06:17:31;;;;;;;1.60;0.60;;;13.80;99.90;;;;;;4975036;28;20638;-25
2023/10/28 06:19:59;;;;;;;3.53;1.10;;;13.80;99.90;;;;;;4948851;28;20048;-25
2023/10/28 06:22:25;;;;;;;1.58;0.70;;;13.80;99.90;;;;;;4956388;28;20300;-25
2023/10/28 06:24:50;;;;;;;1.60;0.80;;;13.80;99.90;;;;;;4959323;28;20440;-25
2023/10/28 06:27:16;;;;;;;3.08;0.90;;;13.70;99.90;;;;;;4950777;28;20038;-25
2023/10/28 06:29:43;;;;;;;2.80;0.80;;;13.30;99.90;;;;;;4973439;28;20065;-25
2023/10/28 06:32:09;;;;;;;2.78;0.80;;;13.70;99.90;;;;;;4956511;28;20065;-25
2023/10/28 06:34:35;;;;;;;1.98;0.70;;;13.70;99.90;;;;;;4954360;28;20121;-25
2023/10/28 06:37:01;;;;;;;2.90;0.70;;;13.70;99.90;;;;;;4975063;28;20026;-25
2023/10/28 06:39:27;;;;;;;2.73;0.70;;;13.70;99.90;;;;;;4965556;28;20030;-25
2023/10/28 06:41:53;;;;;;;2.72;0.70;;;13.70;99.90;;;;;;4964270;28;20034;-25
2023/10/28 06:44:20;;;;;;;2.03;0.70;;;13.80;99.90;;;;;;4971087;28;20031;-25
2023/10/28 06:46:45;;;;;;;2.38;1.35;;;13.80;99.90;;;;;;4964074;28;20546;-25
2023/10/28 06:49:11;;;;;;;1.77;0.60;;;13.70;99.90;;;;;;4962189;28;20519;-25
2023/10/28 06:51:37;;;;;;;2.75;0.68;;;13.80;99.90;;;;;;4950632;28;20026;-25
2023/10/28 06:54:04;;;;;;;2.38;0.70;;;13.60;99.90;;;;;;4949753;28;20038;-22
2023/10/28 06:56:30;;;;;;;2.10;0.80;;;13.80;99.90;;;;;;4964096;28;20027;-22
2023/10/28 06:58:56;;;;;;;3.92;0.80;;;13.80;99.90;;;;;;4932780;28;20047;-23
2023/10/28 07:01:22;;;;;;;2.50;0.80;;;14.40;99.90;;;;;;4975934;28;20034;-23
2023/10/28 07:03:49;;;;;;;2.70;0.90;;;13.90;99.90;;;;;;4965075;28;20752;-25
2023/10/28 07:06:16;;;;;;;2.40;0.90;;;13.90;99.90;;;;;;4954285;28;20048;-25
2023/10/28 07:08:42;;;;;;;2.05;0.90;;;13.90;99.90;;;;;;4954597;28;20035;-25
2023/10/28 07:11:08;;;;;;;1.55;0.82;;;14.00;99.90;;;;;;4958836;28;20118;-25
2023/10/28 07:13:33;;;;;;;2.77;1.07;;;14.00;99.90;;;;;;4966680;28;20117;-25
2023/10/28 07:16:02;;;;;;;2.13;0.73;;;14.00;99.90;;;;;;4960826;28;20019;-25
2023/10/28 07:18:29;;;;;;;3.85;1.25;;;14.00;99.90;;;;;;4948576;28;20027;-25
2023/10/28 07:20:55;;;;;;;2.20;0.90;;;14.00;99.90;;;;;;4989545;28;20730;-25
2023/10/28 07:23:21;;;;;;;1.10;0.80;;;14.10;99.90;;;;;;4947983;28;20127;-25
2023/10/28 07:25:47;;;;;;;3.30;0.90;;;14.10;99.90;;;;;;4955158;28;20587;-25
2023/10/28 07:28:14;;;;;;;1.80;0.70;;;14.10;99.90;;;;;;4943418;28;20049;-25
2023/10/28 07:30:51;;;;;;;2.03;0.60;;;14.10;99.90;;;;;;4960286;28;20617;-25
2023/10/28 07:33:18;;;;;;;5.13;1.10;;;14.10;99.90;;;;;;4967384;28;20046;-25
2023/10/28 07:35:48;;;;;;;2.10;0.68;;;14.20;99.90;;;;;;4983998;28;20121;-25
2023/10/28 07:38:15;;;;;;;3.17;0.80;;;14.20;99.90;;;;;;4953678;28;20035;-25
2023/10/28 07:40:41;;;;;;;3.22;1.00;;;14.30;99.90;;;;;;4955000;28;21215;-25
2023/10/28 07:43:09;;;;;;;2.63;0.80;;;14.40;99.90;;;;;;4957657;28;20022;-25
2023/10/28 07:45:34;;;;;;;2.15;0.80;;;14.40;99.90;;;;;;4966212;28;20034;-25
2023/10/28 07:48:01;;;;;;;2.43;0.90;;;14.40;99.90;;;;;;4962412;28;20027;-25
2023/10/28 07:50:26;;;;;;;2.47;1.10;;;14.50;99.90;;;;;;4962127;28;20500;-25
2023/10/28 07:52:52;;;;;;;2.58;0.95;;;14.50;99.90;;;;;;4948743;28;20855;-25
2023/10/28 07:55:18;;;;;;;3.20;1.27;;;;;;;;;;4981660;28;20101;-25
2023/10/28 07:57:45;;;;;;;3.78;1.00;;;14.50;99.90;;;;;;4954108;28;20076;-25
2023/10/28 08:00:13;;;;;;;1.98;0.80;;;14.70;99.90;;;;;;4968110;28;20030;-25
2023/10/28 08:02:44;;;;;;;1.33;0.80;;;14.70;99.90;;;;;;4958693;28;20343;-25
2023/10/28 08:05:11;;;;;;;2.07;0.83;;;14.50;99.90;;;;;;4963559;28;20042;-24
2023/10/28 08:07:37;;;;;;;3.20;1.27;;;14.90;99.90;;;;;;4972701;28;20042;-23
2023/10/28 08:10:04;;;;;;;6.65;1.75;;;15.00;99.90;;;;;;4946599;28;20046;-23
2023/10/28 08:12:30;;;;;;;1.90;0.95;;;15.00;99.90;;;;;;4967049;28;20620;-23
2023/10/28 08:14:56;;;;;;;5.03;1.30;;;15.10;99.90;;;;;;4957634;28;20018;-25
2023/10/28 08:17:22;;;;;;;2.90;1.00;;;15.20;99.90;;;;;;4952811;28;20114;-26
2023/10/28 08:19:49;;;;;;;4.88;1.10;;;15.20;99.90;;;;;;4959292;28;20037;-25
2023/10/28 08:22:15;;;;;;;2.47;1.05;;;15.30;99.90;;;;;;4965019;28;20034;-25
2023/10/28 08:24:41;;;;;;;3.27;0.90;;;15.30;99.90;;;;;;4950333;28;20089;-25
2023/10/28 08:27:10;;;;;;;2.13;0.80;;;15.30;99.90;;;;;;4973914;28;20366;-25
2023/10/28 08:29:37;;;;;;;3.05;1.10;;;15.40;99.90;;;;;;4964855;28;20622;-25
2023/10/28 08:32:03;;;;;;;2.43;1.07;;;15.40;99.90;;;;;;4942552;28;20382;-25
2023/10/28 08:34:29;;;;;;;6.22;1.23;;;15.40;99.90;;;;;;4959765;28;20032;-25
2023/10/28 08:36:55;;;;;;;4.03;1.10;;;15.50;99.90;;;;;;4948251;28;20388;-25
2023/10/28 08:39:20;;;;;;;4.20;1.00;;;15.50;99.90;;;;;;4961018;28;20753;-25
2023/10/28 08:41:47;;;;;;;1.50;0.77;;;15.50;99.90;;;;;;4953629;28;20513;-26
2023/10/28 08:44:14;;;;;;;3.72;1.25;;;15.60;99.90;;;;;;4965644;28;20026;-25
2023/10/28 08:46:41;;;;;;;2.63;1.05;;;15.60;99.90;;;;;;4938523;28;20709;-25
2023/10/28 08:49:12;;;;;;;2.83;0.87;;;15.70;99.90;;;;;;4939242;28;20179;-25
2023/10/28 08:51:42;;;;;;;3.22;0.90;;;15.70;99.90;;;;;;4968206;28;20154;-25
2023/10/28 08:54:10;;;;;;;1.58;0.80;;;15.70;99.90;;;;;;4962607;28;20665;-25
2023/10/28 08:56:40;;;;;;;3.28;1.17;;;15.80;99.90;;;;;;4939912;28;20915;-25
2023/10/28 08:59:07;;;;;;;2.17;0.90;;;15.90;99.90;;;;;;4961026;28;20036;-25
2023/10/28 09:01:34;;;;;;;3.10;0.87;;;16.00;99.90;;;;;;4948007;28;20244;-25
2023/10/28 09:04:06;;;;;;;2.47;1.00;;;16.10;99.90;;;;;;4949209;28;20030;-25
2023/10/28 09:06:33;;;;;;;5.45;1.00;;;16.40;99.90;;;;;;4958311;28;20504;-26
2023/10/28 09:08:59;;;;;;;2.75;0.85;;;16.70;99.90;;;;;;4941447;28;20615;-25
2023/10/28 09:11:25;;;;;;;2.22;0.80;;;17.10;99.90;;;;;;4930752;28;20381;-26
2023/10/28 09:13:56;;;;;;;2.27;0.93;;;17.30;99.90;;;;;;4966365;28;20045;-25
2023/10/28 09:16:21;;;;;;;2.60;0.80;;;18.20;99.90;;;;;;4959284;28;20033;-24
2023/10/28 09:18:49;;;;;;;1.90;0.90;;;17.90;99.90;;;;;;4960519;28;20397;-24
2023/10/28 09:21:15;;;;;;;1.52;0.90;;;18.10;99.90;;;;;;4958704;28;20113;-24
2023/10/28 09:23:44;;;;;;;1.43;0.70;;;18.40;99.90;;;;;;4957356;28;20038;-24
2023/10/28 09:26:10;;;;;;;2.03;0.70;;;18.60;99.90;;;;;;4944737;28;20812;-24
2023/10/28 09:28:43;;;;;;;2.65;0.80;;;18.90;99.90;;;;;;4967244;28;20081;-24
2023/10/28 09:31:09;;;;;;;2.97;1.10;;;19.20;99.90;;;;;;4938355;28;20069;-24
2023/10/28 09:33:36;;;;;;;2.30;0.90;;;19.50;99.90;;;;;;4951187;28;20023;-24
2023/10/28 09:36:04;;;;;;;1.40;1.00;;;19.70;99.90;;;;;;4944890;28;20454;-24
2023/10/28 09:38:30;;;;;;;3.55;1.00;;;20.00;99.90;;;;;;4948460;28;20081;-24
2023/10/28 09:40:58;;;;;;;2.80;0.95;;;20.20;99.90;;;;;;4962708;28;20021;-25
2023/10/28 09:43:25;;;;;;;3.73;1.10;;;20.40;99.90;;;;;;4960799;28;20048;-24
2023/10/28 09:45:52;;;;;;;3.80;1.15;;;20.40;99.90;;;;;;4955010;28;20031;-26
2023/10/28 09:48:19;;;;;;;2.55;0.70;;;20.40;99.90;;;;;;4953461;28;20031;-26
2023/10/28 09:50:50;;;;;;;2.92;0.70;;;20.20;99.90;;;;;;4968494;28;20053;-26
2023/10/28 09:53:29;;;;;;;2.13;0.98;;;20.10;99.90;;;;;;4959019;28;20122;-26
2023/10/28 09:55:56;;;;;;;4.17;1.10;;;19.80;99.90;;;;;;4959656;28;20050;-26
2023/10/28 09:58:28;;;;;;;3.10;1.00;;;19.60;99.90;;;;;;4930216;28;20034;-26
2023/10/28 10:01:21;;;;;;;3.97;1.02;;;19.40;99.90;;;;;;4960908;28;20363;-26
2023/10/28 10:04:13;;;;;;;2.88;0.90;;;19.20;99.90;;;;;;4944252;28;20022;-26
2023/10/28 10:06:39;;;;;;;4.35;1.20;;;18.90;99.90;;;;;;4960596;28;20450;-26
2023/10/28 10:09:12;;;;;;;3.60;1.00;;;18.80;99.90;;;;;;4964801;28;20049;-26
2023/10/28 10:11:44;;;;;;;3.45;1.08;;;18.70;99.90;;;;;;4959368;28;20030;-26
2023/10/28 10:14:11;;;;;;;3.22;1.40;;;18.60;99.90;;;;;;4964392;28;20435;-26
2023/10/28 10:16:46;;;;;;;3.90;1.20;;;18.50;99.90;;;;;;4976298;28;20049;-26
2023/10/28 10:19:20;;;;;;;3.42;1.33;;;18.40;99.90;;;;;;4961673;28;20041;-26
2023/10/28 10:21:52;;;;;;;2.47;1.20;;;18.20;99.90;;;;;;4971881;28;20489;-26
2023/10/28 10:24:19;;;;;;;3.55;1.25;;;18.10;99.90;;;;;;4974646;28;20125;-26
2023/10/28 10:26:57;;;;;;;4.88;1.48;;;18.00;99.90;;;;;;4943135;28;20018;-26
2023/10/28 10:29:26;;;;;;;3.20;1.30;;;17.90;99.90;;;;;;4952463;28;21198;-26
2023/10/28 10:31:52;;;;;;;4.60;1.40;;;17.80;99.90;;;;;;4968125;28;20046;-26
2023/10/28 10:34:39;;;;;;;2.63;1.27;;;17.90;99.90;;;;;;4963390;28;20026;-26
2023/10/28 10:37:06;;;;;;;3.00;1.25;;;18.00;99.90;;;;;;4970340;28;20208;-26
2023/10/28 10:39:46;;;;;;;4.43;1.30;;;18.30;99.90;;;;;;4962452;28;20038;-26
2023/10/28 10:42:15;;;;;;;3.70;1.20;;;18.50;99.90;;;;;;4959954;28;20053;-26
2023/10/28 10:44:41;;;;;;;4.45;1.40;;;18.80;99.90;;;;;;4950347;28;20038;-26
2023/10/28 10:47:08;;;;;;;4.13;1.40;;;19.00;99.90;;;;;;4954167;28;20530;-26
2023/10/28 10:49:35;;;;;;;2.75;1.30;;;19.10;99.90;;;;;;4950933;28;20488;-27
2023/10/28 10:52:02;;;;;;;5.72;1.90;;;19.20;99.90;;;;;;4953379;28;20058;-26
2023/10/28 10:54:29;;;;;;;8.10;1.90;;;19.30;99.90;;;;;;4947538;28;20538;-26
2023/10/28 10:56:55;;;;;;;3.70;1.40;;;19.20;99.90;;;;;;4959482;28;20025;-26
2023/10/28 10:59:21;;;;;;;5.03;1.60;;;19.10;99.90;;;;;;4956088;28;20042;-26
2023/10/28 11:01:47;;;;;;;3.17;1.33;;;19.10;99.90;;;;;;4975751;28;20372;-27
2023/10/28 11:04:13;;;;;;;6.68;1.80;;;19.10;99.90;;;;;;4968794;28;20469;-26
2023/10/28 11:06:38;;;;;;;3.77;1.40;;;19.40;99.90;;;;;;4934110;28;20636;-26
2023/10/28 11:09:06;;;;;;;4.78;1.30;;;19.70;99.90;;;;;;4957026;28;20046;-27
2023/10/28 11:11:38;;;;;;;5.70;1.58;;;19.90;99.90;;;;;;4951175;28;20662;-26
2023/10/28 11:14:05;;;;;;;7.82;1.60;;;20.20;99.90;;;;;;4968193;28;20022;-26
2023/10/28 11:16:32;;;;;;;3.70;1.40;;;20.50;99.90;;;;;;4948030;28;20219;-27
2023/10/28 11:19:02;;;;;;;5.53;1.95;;;21.90;99.90;;;;;;4969093;28;20035;-27
2023/10/28 11:21:30;;;;;;;6.45;1.60;;;21.00;99.90;;;;;;4950273;28;20597;-27
2023/10/28 11:23:56;;;;;;;4.72;1.50;;;21.20;99.90;;;;;;4966773;28;20037;-27
2023/10/28 11:26:23;;;;;;;4.75;1.70;;;21.40;99.90;;;;;;4934624;28;20423;-26
2023/10/28 11:28:48;;;;;;;6.00;1.53;;;21.50;99.90;;;;;;4976094;28;20429;-27
2023/10/28 11:31:19;;;;;;;5.05;1.30;;;21.50;99.90;;;;;;4943698;28;20038;-26
2023/10/28 11:33:45;;;;;;;5.40;1.50;;;21.40;99.90;;;;;;4969831;28;20031;-28
2023/10/28 11:36:12;;;;;;;4.10;1.40;;;21.20;99.90;;;;;;4951884;28;20526;-25
2023/10/28 11:38:38;;;;;;;3.72;1.40;;;21.10;99.90;;;;;;4966580;28;20034;-25
2023/10/28 11:41:07;;;;;;;3.70;1.48;;;21.00;99.90;;;;;;4958746;28;20425;-25
2023/10/28 11:43:37;;;;;;;4.45;1.27;;;20.90;99.90;;;;;;4941943;28;20038;-25
2023/10/28 11:46:06;;;;;;;5.53;1.27;;;20.80;99.90;;;;;;4969978;28;20085;-25
2023/10/28 11:48:33;;;;;;;3.85;1.42;;;20.80;99.90;;;;;;4956112;28;20708;-25
2023/10/28 11:51:00;;;;;;;4.28;1.38;;;20.80;99.90;;;;;;4963678;28;20038;-25
2023/10/28 11:53:28;;;;;;;4.07;1.35;;;20.90;99.90;;;;;;4957935;28;20411;-25
2023/10/28 11:55:54;;;;;;;4.30;1.33;;;21.00;99.90;;;;;;4957274;28;20022;-25
2023/10/28 11:58:24;;;;;;;4.07;1.40;;;21.10;99.90;;;;;;4957224;28;20043;-25
2023/10/28 12:00:53;;;;;;;4.07;1.40;;;21.20;99.90;;;;;;4966447;28;20062;-25
2023/10/28 12:03:22;;;;;;;5.75;1.20;;;21.20;99.90;;;;;;4945667;28;20400;-25
2023/10/28 12:05:47;;;;;;;3.85;1.27;;;21.20;99.90;;;;;;4964909;28;20033;-25
2023/10/28 12:08:13;;;;;;;4.07;1.57;;;21.20;99.90;;;;;;4961418;28;20611;-26
2023/10/28 12:10:43;;;;;;;5.85;1.45;;;21.10;99.90;;;;;;4951949;28;20284;-26
2023/10/28 12:13:18;;;;;;;3.20;1.30;;;21.20;99.90;;;;;;4941594;28;20026;-25
2023/10/28 12:15:44;;;;;;;4.25;1.55;;;21.30;99.90;;;;;;4960568;28;20514;-26
2023/10/28 12:18:10;;;;;;;5.57;1.55;;;21.50;99.90;;;;;;4939385;28;20022;-25
2023/10/28 12:20:37;;;;;;;4.80;1.20;;;21.50;99.90;;;;;;4968691;28;20500;-26
2023/10/28 12:23:04;;;;;;;3.25;1.20;;;21.50;99.90;;;;;;4967742;28;20666;-25
2023/10/28 12:25:30;;;;;;;4.45;1.27;;;21.40;99.90;;;;;;4973249;28;20024;-25
2023/10/28 12:27:56;;;;;;;4.22;1.20;;;21.20;99.90;;;;;;4956077;28;20085;-25
2023/10/28 12:30:22;;;;;;;5.57;1.40;;;21.10;99.90;;;;;;4941034;28;20394;-25
2023/10/28 12:32:49;;;;;;;3.70;1.17;;;21.10;99.90;;;;;;4935588;28;20334;-26
2023/10/28 12:35:15;;;;;;;3.15;1.27;;;21.00;99.90;;;;;;4968743;28;20120;-25
2023/10/28 12:37:41;;;;;;;3.67;1.10;;;20.90;99.90;;;;;;4961028;28;20329;-26
2023/10/28 12:40:07;;;;;;;4.00;1.30;;;20.80;99.90;;;;;;4957847;28;20050;-25
2023/10/28 12:42:36;;;;;;;4.68;1.25;;;20.60;99.90;;;;;;4950522;28;20148;-25
2023/10/28 12:45:06;;;;;;;3.20;1.10;;;20.50;99.90;;;;;;4958172;28;20030;-25
2023/10/28 12:47:33;;;;;;;4.10;1.10;;;20.50;99.90;;;;;;4969469;28;20427;-25